首页
METAR-TAF:

METAR-TAF

机场 :

哈利法克斯罗伯特·洛恩·斯坦菲尔德国际机场

哈利法克斯, 新斯科舍, 加拿大

纬度: 44-53N, 经度: 063-30W, 海拔: 145米

当前天气观测

该预报发布于34分钟前的11:00 UTC
风速14节,风向
温度 6°C
湿度 100%
气压 1012 hPa
能見度: 4.8公里
小毛毛雨, 轻雾

METAR: CYHZ 241100Z 19014KT 3SM -DZ BR VV002 06/06 A2987 RMK FG8 SLP121

时间: 07:34 (11:34 UTC)

预报

该预报发布于2小时和55分钟前的08:39 UTC
预报有效从24日的 09点(UTC)到 25日的 06点(UTC)
风速12节,风向南转西南
能見度: 3.2公里
阴天层高于200英尺
小阵雨, 小毛毛雨, 轻雾
短暂存在
从 24日的 09点(UTC)到 24日的 16点(UTC)
能見度: 9.7公里
阴天层高于400英尺
轻雾
从 24日的 1600点(UTC)
风速12节,风向西南,有时为22节阵风
能見度: 9.7公里
阴天层高于800英尺
小雨, 轻雾
从 24日的 2000点(UTC)
风速15节,风向南转西南,有时为25节阵风
能見度: 9.7公里
阴天层高于1000英尺
小毛毛雨, 轻雾
几率 40%
从 24日的 20点(UTC)到 25日的 03点(UTC)
阴天层高于800英尺
从 25日的 0300点(UTC)
风速25节,风向,有时为35节阵风
能見度: 4.8公里
阴天层高于400英尺
阵雨, 轻雾

TAF: CYHZ 240839Z 2409/2506 20012KT 2SM -SHRA -DZ BR OVC002 TEMPO 2409/2416 6SM BR OVC004 FM241600 22012G22KT 6SM -RA BR OVC008 FM242000 20015G25KT 6SM -DZ BR OVC010 PROB40 2420/2503 OVC008 FM250300 19025G35KT 3SM SHRA BR OVC004 RMK NXT FCST BY 241200Z

超过4000个机场的气象观测和天气预报(METAR&TAF报告)。

可查询的气象台以黄色和红色小点在地图上表示。

将鼠标移到小点上方,可查看气象台名称。

然后点击查看天气观测和预报。

如需切换地图:点击带黑十字的绿色按钮放大地图;点击带横线的绿色按钮缩小地图;或者点击绿色箭头查看邻近地区的地图。


METAR-TAF: